createdAt,value
2023-09-11T00:00:17.122Z,30.12
2023-09-11T00:02:44.262Z,30.20
2023-09-11T00:05:11.609Z,30.24
2023-09-11T00:07:38.735Z,30.04
2023-09-11T00:10:08.277Z,29.93
2023-09-11T00:12:35.457Z,30.07
2023-09-11T00:15:02.841Z,30.18
2023-09-11T00:17:30.868Z,30.31
2023-09-11T00:19:58.116Z,30.26
2023-09-11T00:22:25.183Z,30.10
2023-09-11T00:24:52.199Z,30.02
2023-09-11T00:27:20.737Z,30.05
2023-09-11T00:29:47.873Z,30.09
2023-09-11T00:32:14.903Z,30.01
2023-09-11T00:34:41.968Z,29.99
2023-09-11T00:37:09.038Z,29.96
2023-09-11T00:39:36.075Z,29.92
2023-09-11T00:42:03.364Z,29.83
2023-09-11T00:44:32.027Z,29.71
2023-09-11T00:47:00.059Z,29.77
2023-09-11T00:49:27.436Z,29.69
2023-09-11T00:51:56.114Z,29.75
2023-09-11T00:54:25.115Z,29.81
2023-09-11T00:56:52.240Z,29.73
2023-09-11T00:59:20.261Z,29.37
2023-09-11T01:01:50.158Z,29.77
2023-09-11T01:04:18.184Z,29.77
2023-09-11T01:06:47.408Z,29.84
2023-09-11T01:09:15.125Z,29.74
2023-09-11T01:11:42.170Z,29.74
2023-09-11T01:14:09.446Z,29.66
2023-09-11T01:16:45.277Z,29.66
2023-09-11T01:19:37.368Z,29.62
2023-09-11T01:22:27.018Z,29.59
2023-09-11T01:25:21.213Z,29.50
2023-09-11T01:28:14.615Z,29.52
2023-09-11T01:30:46.772Z,29.55
2023-09-11T01:33:14.702Z,29.42
2023-09-11T01:35:41.888Z,29.49
2023-09-11T01:38:09.859Z,29.48
2023-09-11T01:40:42.317Z,29.54
2023-09-11T01:43:12.986Z,29.62
2023-09-11T01:45:43.468Z,29.72
2023-09-11T01:48:14.418Z,29.73
2023-09-11T01:50:43.738Z,29.68
2023-09-11T01:53:12.322Z,29.57
2023-09-11T01:55:40.301Z,29.62
2023-09-11T01:58:07.479Z,29.55
2023-09-11T02:00:34.725Z,29.55
2023-09-11T02:03:03.616Z,29.55
2023-09-11T02:05:30.990Z,29.53
2023-09-11T02:07:58.109Z,29.49
2023-09-11T02:10:25.162Z,29.42
2023-09-11T02:12:52.205Z,29.46
2023-09-11T02:15:19.198Z,29.42
2023-09-11T02:17:46.789Z,29.36
2023-09-11T02:20:15.498Z,29.30
2023-09-11T02:22:42.560Z,29.41
2023-09-11T02:25:09.840Z,29.43
2023-09-11T02:27:36.940Z,29.48
2023-09-11T02:30:04.982Z,29.47
2023-09-11T02:32:32.178Z,29.44
2023-09-11T02:34:59.380Z,29.46
2023-09-11T02:37:27.896Z,29.45
2023-09-11T02:39:55.019Z,29.39
2023-09-11T02:42:22.246Z,29.32
2023-09-11T02:44:49.312Z,29.44
2023-09-11T02:47:16.397Z,29.32
2023-09-11T02:49:43.490Z,29.36
2023-09-11T02:52:10.584Z,29.25
2023-09-11T02:57:10.979Z,29.16
2023-09-11T02:59:38.096Z,29.12
2023-09-11T03:04:46.567Z,29.21
2023-09-11T03:07:13.642Z,29.22
2023-09-11T03:09:42.125Z,29.23
2023-09-11T03:12:09.300Z,29.16
2023-09-11T03:14:36.463Z,29.15
2023-09-11T03:17:03.671Z,29.10
2023-09-11T03:19:33.597Z,29.11
2023-09-11T03:22:00.662Z,29.14
2023-09-11T03:24:27.691Z,29.12
2023-09-11T03:26:56.281Z,29.15
2023-09-11T03:29:23.524Z,29.09
2023-09-11T03:31:50.591Z,29.07
2023-09-11T03:34:17.811Z,29.07
2023-09-11T03:36:45.091Z,29.03
2023-09-11T03:39:12.173Z,29.03
2023-09-11T03:41:39.364Z,29.07
2023-09-11T03:44:08.229Z,29.04
2023-09-11T03:46:35.362Z,29.04
2023-09-11T03:49:02.589Z,28.92
2023-09-11T03:51:29.569Z,28.85
2023-09-11T03:53:59.493Z,28.79
2023-09-11T03:56:27.030Z,28.80
2023-09-11T03:58:54.349Z,28.87
2023-09-11T04:01:22.915Z,28.77
2023-09-11T04:03:50.177Z,28.88
2023-09-11T04:06:17.344Z,28.86
2023-09-11T04:08:44.361Z,28.90
2023-09-11T04:11:11.521Z,28.82
2023-09-11T04:13:38.599Z,28.81
2023-09-11T04:16:05.597Z,28.78
2023-09-11T04:18:34.215Z,28.63
2023-09-11T04:21:02.085Z,28.84
2023-09-11T04:23:29.210Z,28.93
2023-09-11T04:25:57.082Z,28.87
2023-09-11T04:28:24.153Z,28.88
2023-09-11T04:30:51.213Z,28.77
2023-09-11T04:33:19.746Z,28.57
2023-09-11T04:35:48.483Z,28.55
2023-09-11T04:38:15.553Z,28.42
2023-09-11T04:40:42.678Z,28.30
2023-09-11T04:43:09.784Z,28.32
2023-09-11T04:45:38.590Z,28.22
2023-09-11T04:48:07.069Z,28.16
2023-09-11T04:50:34.746Z,28.09
2023-09-11T04:53:03.746Z,28.02
2023-09-11T04:55:32.028Z,27.99
2023-09-11T04:57:59.156Z,28.16
2023-09-11T05:00:27.186Z,28.15
2023-09-11T05:02:54.385Z,28.19
2023-09-11T05:05:21.654Z,28.21
2023-09-11T05:07:48.694Z,28.09
2023-09-11T05:10:17.536Z,27.98
2023-09-11T05:12:44.714Z,27.99
2023-09-11T05:15:11.774Z,28.02
2023-09-11T05:17:39.012Z,28.15
2023-09-11T05:20:07.440Z,28.10
2023-09-11T05:22:34.476Z,28.00
2023-09-11T05:25:01.611Z,27.95
2023-09-11T05:27:30.156Z,27.99
2023-09-11T05:29:57.282Z,27.99
2023-09-11T05:32:24.520Z,27.92
2023-09-11T05:34:51.793Z,27.86
2023-09-11T05:37:19.017Z,27.90
2023-09-11T05:39:46.800Z,27.95
2023-09-11T05:42:14.052Z,27.99
2023-09-11T05:44:42.586Z,28.03
2023-09-11T05:47:10.110Z,28.06
2023-09-11T05:49:37.273Z,28.09
2023-09-11T05:52:05.282Z,28.14
2023-09-11T05:54:32.474Z,28.25
2023-09-11T05:56:59.606Z,28.29
2023-09-11T05:59:26.880Z,28.36
2023-09-11T06:01:55.597Z,28.36
2023-09-11T06:04:22.707Z,28.46
2023-09-11T06:06:49.805Z,28.40
2023-09-11T06:09:16.967Z,28.52
2023-09-11T06:11:44.112Z,28.53
2023-09-11T06:14:11.233Z,28.62
2023-09-11T06:16:38.217Z,28.70
2023-09-11T06:19:06.879Z,28.92
2023-09-11T06:21:34.290Z,29.09
2023-09-11T06:24:01.568Z,29.28
2023-09-11T06:26:28.775Z,29.57
2023-09-11T06:28:55.834Z,29.80
2023-09-11T06:31:23.671Z,30.10
2023-09-11T06:33:50.962Z,30.21
2023-09-11T06:36:19.578Z,30.51
2023-09-11T06:38:46.727Z,30.75
2023-09-11T06:41:13.858Z,30.93
2023-09-11T06:43:40.896Z,31.05
2023-09-11T06:46:08.027Z,31.29
2023-09-11T06:48:35.342Z,31.46
2023-09-11T06:51:02.524Z,31.34
2023-09-11T06:53:31.192Z,31.74
2023-09-11T06:55:58.276Z,32.01
2023-09-11T06:58:25.322Z,32.33
2023-09-11T07:00:52.569Z,32.57
2023-09-11T07:03:19.794Z,32.72
2023-09-11T07:05:47.154Z,32.70
2023-09-11T07:08:14.324Z,32.40
2023-09-11T07:10:43.143Z,32.41
2023-09-11T07:13:10.216Z,32.31
2023-09-11T07:15:37.353Z,32.67
2023-09-11T07:18:05.152Z,32.95
2023-09-11T07:20:32.274Z,33.19
2023-09-11T07:22:59.492Z,33.15
2023-09-11T07:25:26.575Z,33.15
2023-09-11T07:27:56.357Z,32.74
2023-09-11T07:30:23.836Z,33.27
2023-09-11T07:32:52.167Z,33.34
2023-09-11T07:35:19.339Z,33.35
2023-09-11T07:37:46.480Z,33.67
2023-09-11T07:40:13.578Z,33.46
2023-09-11T07:42:40.721Z,33.68
2023-09-11T07:45:10.144Z,33.89
2023-09-11T07:47:37.482Z,33.81
2023-09-11T07:50:05.280Z,33.69
2023-09-11T07:52:32.358Z,34.02
2023-09-11T07:54:59.473Z,33.68
2023-09-11T07:57:26.553Z,33.97
2023-09-11T07:59:53.736Z,34.13
2023-09-11T08:02:22.356Z,33.79
2023-09-11T08:04:49.454Z,34.03
2023-09-11T08:07:16.554Z,34.20
2023-09-11T08:09:43.634Z,34.41
2023-09-11T08:12:10.840Z,34.42
2023-09-11T08:14:38.033Z,34.61
2023-09-11T08:17:05.297Z,34.92
2023-09-11T08:19:33.772Z,34.97
2023-09-11T08:22:00.901Z,34.70
2023-09-11T08:24:28.054Z,34.86
2023-09-11T08:26:55.217Z,34.51
2023-09-11T08:29:22.418Z,34.55
2023-09-11T08:31:49.524Z,34.42
2023-09-11T08:34:16.784Z,34.72
2023-09-11T08:36:46.261Z,34.87
2023-09-11T08:39:13.614Z,34.39
2023-09-11T08:41:44.113Z,34.87
2023-09-11T08:44:11.596Z,35.09
2023-09-11T08:46:41.450Z,35.23
2023-09-11T08:49:11.740Z,35.10
2023-09-11T08:51:47.515Z,35.11
2023-09-11T08:54:18.083Z,35.05
2023-09-11T08:56:47.297Z,35.19
2023-09-11T08:59:19.556Z,35.18
2023-09-11T09:01:49.620Z,34.86
2023-09-11T09:04:18.409Z,34.62
2023-09-11T09:06:48.278Z,34.43
2023-09-11T09:09:17.179Z,34.69
2023-09-11T09:11:45.093Z,35.06
2023-09-11T09:14:14.312Z,34.74
2023-09-11T09:16:41.451Z,35.24
2023-09-11T09:19:08.575Z,35.04
2023-09-11T09:21:35.673Z,35.36
2023-09-11T09:24:10.355Z,35.34
2023-09-11T09:26:57.183Z,34.99
2023-09-11T09:29:24.356Z,35.25
2023-09-11T09:31:51.819Z,35.46
2023-09-11T09:34:19.450Z,35.17
2023-09-11T09:36:50.380Z,35.13
2023-09-11T09:39:17.762Z,35.71
2023-09-11T09:41:54.726Z,35.99
2023-09-11T09:44:31.903Z,35.37
2023-09-11T09:47:07.477Z,35.16
2023-09-11T09:49:42.811Z,34.72
2023-09-11T09:52:10.016Z,34.78
2023-09-11T09:54:46.897Z,35.53
2023-09-11T09:57:17.935Z,35.74
2023-09-11T09:59:49.611Z,35.83
2023-09-11T10:02:24.060Z,35.52
2023-09-11T10:04:53.252Z,35.37
2023-09-11T10:07:38.481Z,35.52
2023-09-11T10:10:22.817Z,35.61
2023-09-11T10:12:54.559Z,35.07
2023-09-11T10:15:22.958Z,35.33
2023-09-11T10:17:53.835Z,35.44
2023-09-11T10:20:21.757Z,35.55
2023-09-11T10:22:48.966Z,35.62
2023-09-11T10:25:16.266Z,35.62
2023-09-11T10:27:43.502Z,35.60
2023-09-11T10:30:19.993Z,35.18
2023-09-11T10:32:53.271Z,35.26
2023-09-11T10:35:20.919Z,35.37
2023-09-11T10:37:49.123Z,35.07
2023-09-11T10:40:17.884Z,34.83
2023-09-11T10:42:45.366Z,35.03
2023-09-11T10:45:28.392Z,35.64
2023-09-11T10:47:56.196Z,35.84
2023-09-11T10:50:25.301Z,36.04
2023-09-11T10:52:56.268Z,35.26
2023-09-11T10:55:24.901Z,35.41
2023-09-11T10:57:53.232Z,35.11
2023-09-11T11:00:22.916Z,35.52
2023-09-11T11:02:54.504Z,35.43
2023-09-11T11:05:21.944Z,35.80
2023-09-11T11:07:50.043Z,36.18
2023-09-11T11:10:18.220Z,36.13
2023-09-11T11:12:47.305Z,36.23
2023-09-11T11:15:23.048Z,35.90
2023-09-11T11:18:11.103Z,35.54
2023-09-11T11:21:00.898Z,35.89
2023-09-11T11:23:31.729Z,35.56
2023-09-11T11:26:01.202Z,35.47
2023-09-11T11:28:40.066Z,35.35
2023-09-11T11:31:09.407Z,35.25
2023-09-11T11:33:38.899Z,35.78
2023-09-11T11:36:07.594Z,35.81
2023-09-11T11:38:36.387Z,35.94
2023-09-11T11:41:04.495Z,35.04
2023-09-11T11:43:32.401Z,35.30
2023-09-11T11:45:59.938Z,35.43
2023-09-11T11:48:28.360Z,35.49
2023-09-11T11:50:57.141Z,35.69
2023-09-11T11:53:26.100Z,35.68
2023-09-11T11:55:57.363Z,35.33
2023-09-11T11:58:25.622Z,35.74
2023-09-11T12:01:00.668Z,35.49
2023-09-11T12:03:29.108Z,35.05
2023-09-11T12:06:00.296Z,35.22
2023-09-11T12:08:28.635Z,35.39
2023-09-11T12:10:56.219Z,35.50
2023-09-11T12:13:38.539Z,35.40
2023-09-11T12:16:11.411Z,35.55
2023-09-11T12:18:43.045Z,35.55
2023-09-11T12:21:12.038Z,35.55
2023-09-11T12:23:39.275Z,35.40
2023-09-11T12:26:07.102Z,34.82
2023-09-11T12:28:35.136Z,34.78
2023-09-11T12:31:02.881Z,34.92
2023-09-11T12:33:30.897Z,34.79
2023-09-11T12:35:58.418Z,34.79
2023-09-11T12:38:27.920Z,34.72
2023-09-11T12:40:58.317Z,34.57
2023-09-11T12:43:26.877Z,34.72
2023-09-11T12:45:54.325Z,34.64
2023-09-11T12:48:22.986Z,34.09
2023-09-11T12:50:50.490Z,34.19
2023-09-11T12:53:17.871Z,34.41
2023-09-11T12:55:48.847Z,34.39
2023-09-11T12:58:18.589Z,34.19
2023-09-11T13:00:49.449Z,34.53
2023-09-11T13:03:17.109Z,34.24
2023-09-11T13:05:45.987Z,34.37
2023-09-11T13:08:15.866Z,34.38
2023-09-11T13:10:42.948Z,34.55
2023-09-11T13:13:21.331Z,34.65
2023-09-11T13:15:52.662Z,34.61
2023-09-11T13:18:19.898Z,34.47
2023-09-11T13:20:47.165Z,34.65
2023-09-11T13:23:14.380Z,34.60
2023-09-11T13:25:41.554Z,34.72
2023-09-11T13:28:08.649Z,34.31
2023-09-11T13:30:37.115Z,34.03
2023-09-11T13:33:05.198Z,34.02
2023-09-11T13:35:32.401Z,34.36
2023-09-11T13:37:59.463Z,34.35
2023-09-11T13:40:26.659Z,34.47
2023-09-11T13:42:53.760Z,34.56
2023-09-11T13:45:20.914Z,34.47
2023-09-11T13:47:49.586Z,34.45
2023-09-11T13:50:16.871Z,33.86
2023-09-11T13:52:43.946Z,33.75
2023-09-11T13:55:11.179Z,33.97
2023-09-11T13:57:38.358Z,33.70
2023-09-11T14:00:06.877Z,34.03
2023-09-11T14:02:34.115Z,34.25
2023-09-11T14:05:02.890Z,34.44
2023-09-11T14:07:30.003Z,34.49
2023-09-11T14:09:57.127Z,34.47
2023-09-11T14:12:24.277Z,34.54
2023-09-11T14:14:52.663Z,33.87
2023-09-11T14:17:19.909Z,34.31
2023-09-11T14:19:47.045Z,34.31
2023-09-11T14:22:15.560Z,34.27
2023-09-11T14:24:42.881Z,34.18
2023-09-11T14:27:10.115Z,34.05
2023-09-11T14:29:37.170Z,34.17
2023-09-11T14:32:04.527Z,34.34
2023-09-11T14:34:31.621Z,34.32
2023-09-11T14:37:16.858Z,34.23
2023-09-11T14:39:47.222Z,34.11
2023-09-11T14:42:14.428Z,34.34
2023-09-11T14:44:41.563Z,34.24
2023-09-11T14:47:08.687Z,33.99
2023-09-11T14:49:35.859Z,34.27
2023-09-11T14:52:03.125Z,34.43
2023-09-11T14:54:35.830Z,34.50
2023-09-11T14:57:16.296Z,34.55
2023-09-11T14:59:43.437Z,34.57
2023-09-11T15:02:10.630Z,34.58
2023-09-11T15:04:49.331Z,34.59
2023-09-11T15:07:17.945Z,34.20
2023-09-11T15:09:46.817Z,34.19
2023-09-11T15:12:15.870Z,34.33
2023-09-11T15:14:43.428Z,34.42
2023-09-11T15:17:11.049Z,34.47
2023-09-11T15:19:38.296Z,34.46
2023-09-11T15:22:05.604Z,34.26
2023-09-11T15:24:32.718Z,34.24
2023-09-11T15:26:59.994Z,34.17
2023-09-11T15:29:30.087Z,33.94
2023-09-11T15:32:10.152Z,34.28
2023-09-11T15:34:40.280Z,34.41
2023-09-11T15:37:09.772Z,34.48
2023-09-11T15:39:36.911Z,34.46
2023-09-11T15:42:04.685Z,34.36
2023-09-11T15:44:33.367Z,34.24
2023-09-11T15:47:00.901Z,34.41
2023-09-11T15:49:28.038Z,34.44
2023-09-11T15:51:55.119Z,34.48
2023-09-11T15:54:22.311Z,34.50
2023-09-11T15:56:49.462Z,34.50
2023-09-11T15:59:16.561Z,34.45
2023-09-11T16:01:45.080Z,34.48
2023-09-11T16:04:12.324Z,34.52
2023-09-11T16:06:39.559Z,34.53
2023-09-11T16:09:06.714Z,34.35
2023-09-11T16:11:33.925Z,34.47
2023-09-11T16:14:01.151Z,34.53
2023-09-11T16:16:29.276Z,34.54
2023-09-11T16:18:58.077Z,34.55
2023-09-11T16:21:38.908Z,34.53
2023-09-11T16:24:08.400Z,34.53
2023-09-11T16:26:36.417Z,34.56
2023-09-11T16:29:03.658Z,34.53
2023-09-11T16:31:31.392Z,34.58
2023-09-11T16:34:00.421Z,34.55
2023-09-11T16:36:28.195Z,34.56
2023-09-11T16:38:55.365Z,34.56
2023-09-11T16:41:22.533Z,34.53
2023-09-11T16:43:49.680Z,34.50
2023-09-11T16:46:19.425Z,34.49
2023-09-11T16:48:47.043Z,34.54
2023-09-11T16:51:15.730Z,34.51
2023-09-11T16:53:43.183Z,34.45
2023-09-11T16:56:10.384Z,34.47
2023-09-11T16:58:37.459Z,34.45
2023-09-11T17:01:05.292Z,34.43
2023-09-11T17:03:32.705Z,34.39
2023-09-11T17:05:59.926Z,34.35
2023-09-11T17:08:28.544Z,34.33
2023-09-11T17:10:57.657Z,34.31
2023-09-11T17:13:24.807Z,34.30
2023-09-11T17:15:52.030Z,34.30
2023-09-11T17:18:19.258Z,34.21
2023-09-11T17:20:46.507Z,34.22
2023-09-11T17:23:13.905Z,34.19
2023-09-11T17:25:42.483Z,34.13
2023-09-11T17:28:10.223Z,34.07
2023-09-11T17:30:37.390Z,33.98
2023-09-11T17:33:07.073Z,33.97
2023-09-11T17:35:36.667Z,33.94
2023-09-11T17:38:04.222Z,33.88
2023-09-11T17:40:31.531Z,33.86
2023-09-11T17:43:00.123Z,33.75
2023-09-11T17:45:27.382Z,33.79
2023-09-11T17:47:54.700Z,33.79
2023-09-11T17:50:21.850Z,33.67
2023-09-11T17:52:49.686Z,33.60
2023-09-11T17:55:17.093Z,33.50
2023-09-11T17:57:44.270Z,33.41
2023-09-11T18:00:14.671Z,33.25
2023-09-11T18:02:42.184Z,33.12
2023-09-11T18:05:10.043Z,33.33
2023-09-11T18:07:37.222Z,33.11
2023-09-11T18:10:05.074Z,33.03
2023-09-11T18:12:33.068Z,33.07
2023-09-11T18:15:02.654Z,33.10
2023-09-11T18:17:31.403Z,33.11
2023-09-11T18:19:58.622Z,33.08
2023-09-11T18:22:25.739Z,33.07
2023-09-11T18:24:52.843Z,32.94
2023-09-11T18:27:19.992Z,32.80
2023-09-11T18:29:47.274Z,32.68
2023-09-11T18:32:14.563Z,32.70
2023-09-11T18:34:43.137Z,32.74
2023-09-11T18:37:10.417Z,32.54
2023-09-11T18:39:37.809Z,32.53
2023-09-11T18:42:05.744Z,32.62
2023-09-11T18:44:33.049Z,32.51
2023-09-11T18:47:00.200Z,32.58
2023-09-11T18:49:27.419Z,32.55
2023-09-11T18:51:56.019Z,32.48
2023-09-11T18:54:23.139Z,32.43
2023-09-11T18:56:50.358Z,32.37
2023-09-11T18:59:17.543Z,32.33
2023-09-11T19:01:44.796Z,32.24
2023-09-11T19:04:12.657Z,32.28
2023-09-11T19:06:41.526Z,32.28
2023-09-11T19:09:12.729Z,32.03
2023-09-11T19:11:39.921Z,31.89
2023-09-11T19:14:07.007Z,31.81
2023-09-11T19:16:34.156Z,32.05
2023-09-11T19:19:01.329Z,32.06
2023-09-11T19:21:28.657Z,32.08
2023-09-11T19:23:55.860Z,32.09
2023-09-11T19:26:26.202Z,32.03
2023-09-11T19:28:54.258Z,31.94
2023-09-11T19:31:21.471Z,31.62
2023-09-11T19:33:49.062Z,31.71
2023-09-11T19:36:16.264Z,31.81
2023-09-11T19:38:44.540Z,31.73
2023-09-11T19:41:12.004Z,31.72
2023-09-11T19:43:40.798Z,31.66
2023-09-11T19:46:08.360Z,31.57
2023-09-11T19:48:35.667Z,31.47
2023-09-11T19:51:03.293Z,31.52
2023-09-11T19:53:30.669Z,31.55
2023-09-11T19:55:57.756Z,31.56
2023-09-11T19:58:24.900Z,31.49
2023-09-11T20:00:53.403Z,31.34
2023-09-11T20:03:21.542Z,31.29
2023-09-11T20:05:49.613Z,31.26
2023-09-11T20:08:16.699Z,30.86
2023-09-11T20:10:43.879Z,31.21
2023-09-11T20:13:10.926Z,31.18
2023-09-11T20:15:38.177Z,31.19
2023-09-11T20:18:07.052Z,31.19
2023-09-11T20:20:34.358Z,31.11
2023-09-11T20:23:02.112Z,30.45
2023-09-11T20:25:31.952Z,29.82
2023-09-11T20:27:59.718Z,30.07
2023-09-11T20:30:26.830Z,30.25
2023-09-11T20:32:54.039Z,29.89
2023-09-11T20:35:22.576Z,29.87
2023-09-11T20:37:49.642Z,30.55
2023-09-11T20:40:16.757Z,30.98
2023-09-11T20:42:43.928Z,31.10
2023-09-11T20:45:11.151Z,31.16
2023-09-11T20:47:38.314Z,31.11
2023-09-11T20:50:06.599Z,31.20
2023-09-11T20:52:35.470Z,31.18
2023-09-11T20:55:05.136Z,31.20
2023-09-11T20:57:33.101Z,31.18
2023-09-11T21:00:00.898Z,31.21
2023-09-11T21:02:28.354Z,31.11
2023-09-11T21:04:55.738Z,31.16
2023-09-11T21:07:23.358Z,31.21
2023-09-11T21:09:51.961Z,31.20
2023-09-11T21:12:19.869Z,31.26
2023-09-11T21:14:47.085Z,31.25
2023-09-11T21:17:14.422Z,31.03
2023-09-11T21:19:42.185Z,31.03
2023-09-11T21:22:09.307Z,31.07
2023-09-11T21:24:37.239Z,30.70
2023-09-11T21:27:06.197Z,30.98
2023-09-11T21:29:33.268Z,30.76
2023-09-11T21:32:00.381Z,30.89
2023-09-11T21:34:28.560Z,30.41
2023-09-11T21:36:55.891Z,30.87
2023-09-11T21:39:23.054Z,31.00
2023-09-11T21:41:51.624Z,31.01
2023-09-11T21:44:20.639Z,30.99
2023-09-11T21:46:47.882Z,30.85
2023-09-11T21:49:14.979Z,30.86
2023-09-11T21:51:42.065Z,30.75
2023-09-11T21:54:14.979Z,30.75
2023-09-11T21:56:42.898Z,30.86
2023-09-11T21:59:10.161Z,30.84
2023-09-11T22:01:39.518Z,30.79
2023-09-11T22:04:07.396Z,30.74
2023-09-11T22:06:34.656Z,30.70
2023-09-11T22:09:02.372Z,30.65
2023-09-11T22:11:29.540Z,30.41
2023-09-11T22:13:57.161Z,30.54
2023-09-11T22:16:24.471Z,30.63
2023-09-11T22:18:53.193Z,30.63
2023-09-11T22:21:20.368Z,30.68
2023-09-11T22:23:47.456Z,30.67
2023-09-11T22:26:14.576Z,30.63
2023-09-11T22:28:41.700Z,30.52
2023-09-11T22:31:08.956Z,30.41
2023-09-11T22:33:36.205Z,30.35
2023-09-11T22:36:05.526Z,30.44
2023-09-11T22:38:32.716Z,30.52
2023-09-11T22:40:59.789Z,30.49
2023-09-11T22:43:26.912Z,30.57
2023-09-11T22:45:53.955Z,30.58
2023-09-11T22:48:21.169Z,30.54
2023-09-11T22:50:48.441Z,30.50
2023-09-11T22:53:17.068Z,30.54
2023-09-11T22:55:44.135Z,30.58
2023-09-11T22:58:11.213Z,30.70
2023-09-11T23:00:38.747Z,30.61
2023-09-11T23:03:06.893Z,30.57
2023-09-11T23:05:34.737Z,30.51
2023-09-11T23:08:01.827Z,30.41
2023-09-11T23:10:30.376Z,30.44
2023-09-11T23:12:57.384Z,30.38
2023-09-11T23:15:24.658Z,30.35
2023-09-11T23:17:51.718Z,30.38
2023-09-11T23:20:18.840Z,30.49
2023-09-11T23:22:46.116Z,30.40
2023-09-11T23:25:13.259Z,30.29
2023-09-11T23:27:41.886Z,30.29
2023-09-11T23:30:09.940Z,30.24
2023-09-11T23:32:37.260Z,30.16
2023-09-11T23:35:05.203Z,30.13
2023-09-11T23:37:32.433Z,30.15
2023-09-11T23:39:59.874Z,30.20
2023-09-11T23:42:27.258Z,30.31
2023-09-11T23:44:55.838Z,30.28
2023-09-11T23:47:23.018Z,30.21
2023-09-11T23:49:50.016Z,30.09
2023-09-11T23:52:26.382Z,30.11
2023-09-11T23:54:54.821Z,30.14
2023-09-11T23:57:22.056Z,30.18
2023-09-11T23:59:49.238Z,30.17
